sensor_id;sensor_type;location;lat;lon;timestamp;pressure;altitude;pressure_sealevel;temperature;humidity
5522;BME280;2783;48.730;8.006;2023-04-08T00:01:10;100458.69;;;11.22;100.00
5522;BME280;2783;48.730;8.006;2023-04-08T00:03:35;100460.38;;;11.24;100.00
5522;BME280;2783;48.730;8.006;2023-04-08T00:06:01;100458.59;;;11.25;100.00
5522;BME280;2783;48.730;8.006;2023-04-08T00:08:28;100458.75;;;11.19;100.00
5522;BME280;2783;48.730;8.006;2023-04-08T00:10:53;100459.88;;;11.12;100.00
5522;BME280;2783;48.730;8.006;2023-04-08T00:13:18;100463.31;;;11.14;100.00
5522;BME280;2783;48.730;8.006;2023-04-08T00:15:44;100463.41;;;11.11;100.00
5522;BME280;2783;48.730;8.006;2023-04-08T00:18:09;100454.53;;;11.12;100.00
5522;BME280;2783;48.730;8.006;2023-04-08T00:20:35;100458.94;;;11.13;100.00
5522;BME280;2783;48.730;8.006;2023-04-08T00:23:00;100457.16;;;11.13;100.00
5522;BME280;2783;48.730;8.006;2023-04-08T00:25:26;100465.19;;;11.12;100.00
5522;BME280;2783;48.730;8.006;2023-04-08T00:27:51;100458.03;;;11.12;100.00
5522;BME280;2783;48.730;8.006;2023-04-08T00:30:16;100461.59;;;11.13;100.00
5522;BME280;2783;48.730;8.006;2023-04-08T00:32:42;100454.50;;;11.13;100.00
5522;BME280;2783;48.730;8.006;2023-04-08T00:35:07;100457.09;;;11.15;100.00
5522;BME280;2783;48.730;8.006;2023-04-08T00:37:33;100459.91;;;11.09;100.00
5522;BME280;2783;48.730;8.006;2023-04-08T00:39:59;100459.91;;;11.09;100.00
5522;BME280;2783;48.730;8.006;2023-04-08T00:42:28;100460.81;;;11.09;100.00
5522;BME280;2783;48.730;8.006;2023-04-08T00:44:56;100459.81;;;11.13;100.00
5522;BME280;2783;48.730;8.006;2023-04-08T00:47:22;100454.34;;;11.18;100.00
5522;BME280;2783;48.730;8.006;2023-04-08T00:49:47;100458.69;;;11.20;100.00
5522;BME280;2783;48.730;8.006;2023-04-08T00:52:13;100458.59;;;11.25;100.00
5522;BME280;2783;48.730;8.006;2023-04-08T00:54:38;100468.22;;;11.29;100.00
5522;BME280;2783;48.730;8.006;2023-04-08T00:57:04;100467.34;;;11.30;100.00
5522;BME280;2783;48.730;8.006;2023-04-08T00:59:30;100466.25;;;11.35;100.00
5522;BME280;2783;48.730;8.006;2023-04-08T01:07:48;100471.53;;;11.37;100.00
5522;BME280;2783;48.730;8.006;2023-04-08T01:10:27;100469.03;;;11.32;100.00
5522;BME280;2783;48.730;8.006;2023-04-08T01:12:54;100466.41;;;11.31;100.00
5522;BME280;2783;48.730;8.006;2023-04-08T01:15:20;100469.91;;;11.33;100.00
5522;BME280;2783;48.730;8.006;2023-04-08T01:17:46;100467.28;;;11.31;100.00
5522;BME280;2783;48.730;8.006;2023-04-08T01:20:12;100470.81;;;11.32;100.00
5522;BME280;2783;48.730;8.006;2023-04-08T01:25:11;100467.41;;;11.27;100.00
5522;BME280;2783;48.730;8.006;2023-04-08T01:27:38;100470.16;;;11.24;100.00
5522;BME280;2783;48.730;8.006;2023-04-08T01:30:05;100475.47;;;11.24;100.00
5522;BME280;2783;48.730;8.006;2023-04-08T01:32:31;100471.91;;;11.25;100.00
5522;BME280;2783;48.730;8.006;2023-04-08T01:34:58;100472.00;;;11.22;100.00
5522;BME280;2783;48.730;8.006;2023-04-08T01:37:25;100468.41;;;11.23;100.00
5522;BME280;2783;48.730;8.006;2023-04-08T01:39:52;100475.47;;;11.24;100.00
5522;BME280;2783;48.730;8.006;2023-04-08T01:42:18;100465.78;;;11.21;100.00
5522;BME280;2783;48.730;8.006;2023-04-08T01:44:44;100478.41;;;11.15;100.00
5522;BME280;2783;48.730;8.006;2023-04-08T01:47:10;100481.13;;;11.13;100.00
5522;BME280;2783;48.730;8.006;2023-04-08T01:49:37;100472.16;;;11.16;100.00
5522;BME280;2783;48.730;8.006;2023-04-08T01:52:03;100476.59;;;11.15;100.00
5522;BME280;2783;48.730;8.006;2023-04-08T01:54:29;100470.31;;;11.18;100.00
5522;BME280;2783;48.730;8.006;2023-04-08T01:56:54;100472.16;;;11.16;100.00
5522;BME280;2783;48.730;8.006;2023-04-08T01:59:21;100463.13;;;11.21;100.00
5522;BME280;2783;48.730;8.006;2023-04-08T02:01:48;100473.03;;;11.16;100.00
5522;BME280;2783;48.730;8.006;2023-04-08T02:04:14;100468.59;;;11.17;100.00
5522;BME280;2783;48.730;8.006;2023-04-08T02:06:39;100472.06;;;11.19;100.00
5522;BME280;2783;48.730;8.006;2023-04-08T02:09:05;100479.25;;;11.17;100.00
5522;BME280;2783;48.730;8.006;2023-04-08T02:11:31;100467.72;;;11.16;100.00
5522;BME280;2783;48.730;8.006;2023-04-08T02:13:57;100465.00;;;11.18;100.00
5522;BME280;2783;48.730;8.006;2023-04-08T02:19:23;100474.41;;;10.99;100.00
5522;BME280;2783;48.730;8.006;2023-04-08T02:21:47;100470.25;;;10.89;100.00
5522;BME280;2783;48.730;8.006;2023-04-08T02:24:14;100471.25;;;10.85;100.00
5522;BME280;2783;48.730;8.006;2023-04-08T02:26:41;100479.97;;;10.90;100.00
5522;BME280;2783;48.730;8.006;2023-04-08T02:29:08;100480.94;;;10.87;100.00
5522;BME280;2783;48.730;8.006;2023-04-08T02:31:35;100471.09;;;10.89;100.00
5522;BME280;2783;48.730;8.006;2023-04-08T02:34:02;100477.31;;;10.90;100.00
5522;BME280;2783;48.730;8.006;2023-04-08T02:36:30;100481.69;;;10.92;100.00
5522;BME280;2783;48.730;8.006;2023-04-08T02:38:56;100478.06;;;10.95;100.00
5522;BME280;2783;48.730;8.006;2023-04-08T02:41:21;100477.34;;;10.88;100.00
5522;BME280;2783;48.730;8.006;2023-04-08T02:43:46;100478.28;;;10.86;100.00
5522;BME280;2783;48.730;8.006;2023-04-08T02:46:12;100470.41;;;10.83;100.00
5522;BME280;2783;48.730;8.006;2023-04-08T02:48:37;100476.59;;;10.83;100.00
5522;BME280;2783;48.730;8.006;2023-04-08T02:51:03;100473.16;;;10.80;100.00
5522;BME280;2783;48.730;8.006;2023-04-08T02:53:28;100480.19;;;10.82;100.00
5522;BME280;2783;48.730;8.006;2023-04-08T02:55:53;100472.13;;;10.85;100.00
5522;BME280;2783;48.730;8.006;2023-04-08T02:58:18;100474.66;;;10.90;100.00
5522;BME280;2783;48.730;8.006;2023-04-08T03:00:44;100475.44;;;10.93;100.00
5522;BME280;2783;48.730;8.006;2023-04-08T03:03:09;100472.84;;;10.92;100.00
5522;BME280;2783;48.730;8.006;2023-04-08T03:05:35;100472.88;;;10.90;100.00
5522;BME280;2783;48.730;8.006;2023-04-08T03:08:00;100474.03;;;10.80;100.00
5522;BME280;2783;48.730;8.006;2023-04-08T03:10:25;100470.56;;;10.77;100.00
5522;BME280;2783;48.730;8.006;2023-04-08T03:12:51;100470.53;;;10.78;100.00
5522;BME280;2783;48.730;8.006;2023-04-08T03:15:16;100477.63;;;10.78;100.00
5522;BME280;2783;48.730;8.006;2023-04-08T03:17:41;100475.84;;;10.78;100.00
5522;BME280;2783;48.730;8.006;2023-04-08T03:20:07;100475.84;;;10.78;100.00
5522;BME280;2783;48.730;8.006;2023-04-08T03:22:32;100472.25;;;10.81;100.00
5522;BME280;2783;48.730;8.006;2023-04-08T03:24:57;100471.31;;;10.82;100.00
5522;BME280;2783;48.730;8.006;2023-04-08T03:27:23;100480.16;;;10.84;100.00
5522;BME280;2783;48.730;8.006;2023-04-08T03:29:48;100474.91;;;10.81;100.00
5522;BME280;2783;48.730;8.006;2023-04-08T03:32:14;100478.56;;;10.77;100.00
5522;BME280;2783;48.730;8.006;2023-04-08T03:34:39;100485.59;;;10.78;100.00
5522;BME280;2783;48.730;8.006;2023-04-08T03:37:04;100477.66;;;10.76;100.00
5522;BME280;2783;48.730;8.006;2023-04-08T03:39:30;100488.44;;;10.72;100.00
5522;BME280;2783;48.730;8.006;2023-04-08T03:41:55;100492.91;;;10.70;100.00
5522;BME280;2783;48.730;8.006;2023-04-08T03:44:20;100499.25;;;10.66;100.00
5522;BME280;2783;48.730;8.006;2023-04-08T03:46:46;100492.13;;;10.66;100.00
5522;BME280;2783;48.730;8.006;2023-04-08T03:49:11;100495.69;;;10.65;100.00
5522;BME280;2783;48.730;8.006;2023-04-08T03:51:36;100493.00;;;10.67;100.00
5522;BME280;2783;48.730;8.006;2023-04-08T03:54:01;100492.13;;;10.66;100.00
5522;BME280;2783;48.730;8.006;2023-04-08T03:56:27;100492.13;;;10.66;100.00
5522;BME280;2783;48.730;8.006;2023-04-08T03:58:52;100494.78;;;10.66;100.00
5522;BME280;2783;48.730;8.006;2023-04-08T04:01:17;100493.03;;;10.65;100.00
5522;BME280;2783;48.730;8.006;2023-04-08T04:03:42;100493.94;;;10.66;100.00
5522;BME280;2783;48.730;8.006;2023-04-08T04:06:08;100488.66;;;10.64;100.00
5522;BME280;2783;48.730;8.006;2023-04-08T04:08:34;100489.50;;;10.64;100.00
5522;BME280;2783;48.730;8.006;2023-04-08T04:10:59;100485.91;;;10.67;100.00
5522;BME280;2783;48.730;8.006;2023-04-08T04:13:24;100492.13;;;10.66;100.00
5522;BME280;2783;48.730;8.006;2023-04-08T04:15:50;100489.38;;;10.71;100.00
5522;BME280;2783;48.730;8.006;2023-04-08T04:18:15;100487.47;;;10.74;100.00
5522;BME280;2783;48.730;8.006;2023-04-08T04:20:40;100483.88;;;10.77;100.00
5522;BME280;2783;48.730;8.006;2023-04-08T04:23:06;100483.00;;;10.76;100.00
5522;BME280;2783;48.730;8.006;2023-04-08T04:25:32;100481.16;;;10.78;100.00
5522;BME280;2783;48.730;8.006;2023-04-08T04:27:57;100483.00;;;10.76;100.00
5522;BME280;2783;48.730;8.006;2023-04-08T04:30:22;100486.63;;;10.74;100.00
5522;BME280;2783;48.730;8.006;2023-04-08T04:32:47;100490.19;;;10.73;100.00
5522;BME280;2783;48.730;8.006;2023-04-08T04:35:13;100495.56;;;10.70;100.00
5522;BME280;2783;48.730;8.006;2023-04-08T04:37:38;100485.84;;;10.69;100.00
5522;BME280;2783;48.730;8.006;2023-04-08T04:40:04;100494.72;;;10.68;100.00
5522;BME280;2783;48.730;8.006;2023-04-08T04:42:29;100499.22;;;10.67;100.00
5522;BME280;2783;48.730;8.006;2023-04-08T04:44:55;100499.25;;;10.66;100.00
5522;BME280;2783;48.730;8.006;2023-04-08T04:47:20;100497.53;;;10.63;100.00
5522;BME280;2783;48.730;8.006;2023-04-08T04:49:45;100503.75;;;10.62;100.00
5522;BME280;2783;48.730;8.006;2023-04-08T04:52:11;100501.97;;;10.62;100.00
5522;BME280;2783;48.730;8.006;2023-04-08T04:54:36;100506.47;;;10.60;100.00
5522;BME280;2783;48.730;8.006;2023-04-08T04:57:01;100510.81;;;10.63;100.00
5522;BME280;2783;48.730;8.006;2023-04-08T04:59:27;100513.41;;;10.66;100.00
5522;BME280;2783;48.730;8.006;2023-04-08T05:01:52;100515.97;;;10.71;100.00
5522;BME280;2783;48.730;8.006;2023-04-08T05:04:17;100519.44;;;10.73;100.00
5522;BME280;2783;48.730;8.006;2023-04-08T05:06:42;100524.75;;;10.73;100.00
5522;BME280;2783;48.730;8.006;2023-04-08T05:09:08;100521.22;;;10.74;100.00
5522;BME280;2783;48.730;8.006;2023-04-08T05:11:33;100522.94;;;10.75;100.00
5522;BME280;2783;48.730;8.006;2023-04-08T05:13:58;100524.75;;;10.73;100.00
5522;BME280;2783;48.730;8.006;2023-04-08T05:16:23;100527.41;;;10.73;100.00
5522;BME280;2783;48.730;8.006;2023-04-08T05:18:49;100528.25;;;10.75;100.00
5522;BME280;2783;48.730;8.006;2023-04-08T05:21:14;100524.53;;;10.82;100.00
5522;BME280;2783;48.730;8.006;2023-04-08T05:23:40;100527.16;;;10.83;100.00
5522;BME280;2783;48.730;8.006;2023-04-08T05:26:06;100536.00;;;10.85;100.00
5522;BME280;2783;48.730;8.006;2023-04-08T05:28:31;100536.84;;;10.86;100.00
5522;BME280;2783;48.730;8.006;2023-04-08T05:30:56;100538.59;;;10.87;100.00
5522;BME280;2783;48.730;8.006;2023-04-08T05:33:22;100527.88;;;10.90;100.00
5522;BME280;2783;48.730;8.006;2023-04-08T05:35:47;100537.56;;;10.94;100.00
5522;BME280;2783;48.730;8.006;2023-04-08T05:38:12;100537.47;;;10.97;100.00
5522;BME280;2783;48.730;8.006;2023-04-08T05:40:37;100536.44;;;11.01;100.00
5522;BME280;2783;48.730;8.006;2023-04-08T05:43:03;100541.78;;;11.01;100.00
5522;BME280;2783;48.730;8.006;2023-04-08T05:45:28;100547.00;;;11.04;100.00
5522;BME280;2783;48.730;8.006;2023-04-08T05:47:53;100550.50;;;11.06;100.00
5522;BME280;2783;48.730;8.006;2023-04-08T05:50:19;100546.97;;;11.07;100.00
5522;BME280;2783;48.730;8.006;2023-04-08T05:52:44;100552.16;;;11.11;100.00
5522;BME280;2783;48.730;8.006;2023-04-08T05:55:10;100547.63;;;11.15;100.00
5522;BME280;2783;48.730;8.006;2023-04-08T05:57:35;100553.78;;;11.17;100.00
5522;BME280;2783;48.730;8.006;2023-04-08T06:00:01;100558.19;;;11.18;100.00
5522;BME280;2783;48.730;8.006;2023-04-08T06:02:26;100553.81;;;11.15;100.00
5522;BME280;2783;48.730;8.006;2023-04-08T06:04:51;100565.34;;;11.16;100.00
5522;BME280;2783;48.730;8.006;2023-04-08T06:07:17;100568.84;;;11.18;100.00
5522;BME280;2783;48.730;8.006;2023-04-08T06:09:42;100564.28;;;11.23;100.00
5522;BME280;2783;48.730;8.006;2023-04-08T06:12:08;100573.09;;;11.25;100.00
5522;BME280;2783;48.730;8.006;2023-04-08T06:14:33;100567.88;;;11.22;100.00
5522;BME280;2783;48.730;8.006;2023-04-08T06:16:58;100579.41;;;11.21;100.00
5522;BME280;2783;48.730;8.006;2023-04-08T06:19:23;100578.50;;;11.22;100.00
5522;BME280;2783;48.730;8.006;2023-04-08T06:21:49;100576.84;;;11.18;100.00
5522;BME280;2783;48.730;8.006;2023-04-08T06:24:15;100580.25;;;11.23;100.00
5522;BME280;2783;48.730;8.006;2023-04-08T06:26:40;100580.22;;;11.24;100.00
5522;BME280;2783;48.730;8.006;2023-04-08T06:29:06;100582.78;;;11.27;100.00
5522;BME280;2783;48.730;8.006;2023-04-08T06:31:32;100579.22;;;11.27;100.00
5522;BME280;2783;48.730;8.006;2023-04-08T06:33:57;100578.34;;;11.28;100.00
5522;BME280;2783;48.730;8.006;2023-04-08T06:36:22;100578.16;;;11.34;100.00
5522;BME280;2783;48.730;8.006;2023-04-08T06:38:47;100568.84;;;11.50;100.00
5522;BME280;2783;48.730;8.006;2023-04-08T06:41:13;100580.78;;;11.69;100.00
5522;BME280;2783;48.730;8.006;2023-04-08T06:43:38;100582.00;;;11.88;100.00
5522;BME280;2783;48.730;8.006;2023-04-08T06:46:03;100581.56;;;12.03;100.00
5522;BME280;2783;48.730;8.006;2023-04-08T06:48:29;100587.66;;;12.07;100.00
5522;BME280;2783;48.730;8.006;2023-04-08T06:50:58;100585.47;;;12.21;100.00
5522;BME280;2783;48.730;8.006;2023-04-08T06:53:25;100577.13;;;12.31;98.72
5522;BME280;2783;48.730;8.006;2023-04-08T06:55:50;100589.06;;;12.47;98.34
5522;BME280;2783;48.730;8.006;2023-04-08T06:58:15;100586.28;;;12.52;96.95
5522;BME280;2783;48.730;8.006;2023-04-08T07:00:41;100585.19;;;12.57;96.18
5522;BME280;2783;48.730;8.006;2023-04-08T07:03:06;100583.38;;;12.59;96.02
5522;BME280;2783;48.730;8.006;2023-04-08T07:05:34;100583.25;;;12.62;95.74
5522;BME280;2783;48.730;8.006;2023-04-08T07:07:59;100585.66;;;12.71;95.11
5522;BME280;2783;48.730;8.006;2023-04-08T07:10:25;100588.22;;;12.74;94.48
5522;BME280;2783;48.730;8.006;2023-04-08T07:12:50;100578.81;;;12.89;95.14
5522;BME280;2783;48.730;8.006;2023-04-08T07:15:16;100600.81;;;12.97;94.77
5522;BME280;2783;48.730;8.006;2023-04-08T07:17:41;100591.50;;;13.10;94.45
5522;BME280;2783;48.730;8.006;2023-04-08T07:20:07;100593.81;;;13.20;94.27
5522;BME280;2783;48.730;8.006;2023-04-08T07:22:32;100590.41;;;13.42;94.57
5522;BME280;2783;48.730;8.006;2023-04-08T07:24:57;100600.22;;;13.66;93.54
5522;BME280;2783;48.730;8.006;2023-04-08T07:27:23;100598.47;;;13.65;92.12
5522;BME280;2783;48.730;8.006;2023-04-08T07:29:51;100608.56;;;13.81;92.64
5522;BME280;2783;48.730;8.006;2023-04-08T07:32:17;100607.81;;;14.01;91.68
5522;BME280;2783;48.730;8.006;2023-04-08T07:34:42;100603.06;;;14.09;89.63
5522;BME280;2783;48.730;8.006;2023-04-08T07:37:07;100609.38;;;14.31;89.91
5522;BME280;2783;48.730;8.006;2023-04-08T07:39:32;100604.09;;;14.52;90.16
5522;BME280;2783;48.730;8.006;2023-04-08T07:41:58;100616.69;;;14.72;87.79
5522;BME280;2783;48.730;8.006;2023-04-08T07:44:23;100612.94;;;14.76;86.98
5522;BME280;2783;48.730;8.006;2023-04-08T07:46:48;100619.91;;;14.80;86.79
5522;BME280;2783;48.730;8.006;2023-04-08T07:49:15;100619.78;;;14.83;85.49
5522;BME280;2783;48.730;8.006;2023-04-08T07:51:41;100614.16;;;14.89;86.26
5522;BME280;2783;48.730;8.006;2023-04-08T07:54:06;100620.53;;;15.08;86.12
5522;BME280;2783;48.730;8.006;2023-04-08T07:56:31;100623.00;;;15.34;84.18
5522;BME280;2783;48.730;8.006;2023-04-08T07:58:57;100624.53;;;15.41;82.31
5522;BME280;2783;48.730;8.006;2023-04-08T08:01:22;100631.75;;;15.39;81.45
5522;BME280;2783;48.730;8.006;2023-04-08T08:03:48;100632.22;;;15.27;80.32
5522;BME280;2783;48.730;8.006;2023-04-08T08:06:13;100631.44;;;15.25;80.64
5522;BME280;2783;48.730;8.006;2023-04-08T08:08:38;100635.81;;;15.06;80.15
5522;BME280;2783;48.730;8.006;2023-04-08T08:11:04;100635.38;;;14.95;80.17
5522;BME280;2783;48.730;8.006;2023-04-08T08:13:29;100635.06;;;15.03;80.25
5522;BME280;2783;48.730;8.006;2023-04-08T08:15:55;100623.91;;;15.13;79.71
5522;BME280;2783;48.730;8.006;2023-04-08T08:18:21;100636.88;;;15.02;79.79
5522;BME280;2783;48.730;8.006;2023-04-08T08:20:46;100637.09;;;15.18;79.25
5522;BME280;2783;48.730;8.006;2023-04-08T08:23:11;100632.13;;;15.30;78.66
5522;BME280;2783;48.730;8.006;2023-04-08T08:25:36;100629.88;;;15.41;79.23
5522;BME280;2783;48.730;8.006;2023-04-08T08:28:02;100634.59;;;15.56;78.71
5522;BME280;2783;48.730;8.006;2023-04-08T08:30:27;100637.53;;;15.50;76.81
5522;BME280;2783;48.730;8.006;2023-04-08T08:32:52;100637.88;;;15.63;78.08
5522;BME280;2783;48.730;8.006;2023-04-08T08:35:18;100634.25;;;15.64;78.35
5522;BME280;2783;48.730;8.006;2023-04-08T08:37:43;100642.03;;;15.90;78.45
5522;BME280;2783;48.730;8.006;2023-04-08T08:40:08;100637.16;;;15.59;73.68
5522;BME280;2783;48.730;8.006;2023-04-08T08:42:34;100643.13;;;15.86;72.49
5522;BME280;2783;48.730;8.006;2023-04-08T08:45:02;100638.84;;;16.21;72.00
5522;BME280;2783;48.730;8.006;2023-04-08T08:47:28;100640.38;;;16.83;70.82
5522;BME280;2783;48.730;8.006;2023-04-08T08:49:54;100647.59;;;17.54;69.52
5522;BME280;2783;48.730;8.006;2023-04-08T08:52:20;100641.56;;;18.00;63.65
5522;BME280;2783;48.730;8.006;2023-04-08T08:54:45;100655.75;;;18.36;64.62
5522;BME280;2783;48.730;8.006;2023-04-08T08:57:17;100641.69;;;19.11;61.43
5522;BME280;2783;48.730;8.006;2023-04-08T08:59:44;100636.78;;;19.33;59.73
5522;BME280;2783;48.730;8.006;2023-04-08T09:02:26;100647.91;;;19.27;57.43
5522;BME280;2783;48.730;8.006;2023-04-08T09:04:58;100653.94;;;19.01;58.80
5522;BME280;2783;48.730;8.006;2023-04-08T09:07:24;100653.63;;;18.59;57.17
5522;BME280;2783;48.730;8.006;2023-04-08T09:09:51;100656.69;;;18.35;57.50
5522;BME280;2783;48.730;8.006;2023-04-08T09:12:16;100653.00;;;18.21;58.57
5522;BME280;2783;48.730;8.006;2023-04-08T09:14:42;100661.00;;;18.22;59.79
5522;BME280;2783;48.730;8.006;2023-04-08T09:17:07;100660.94;;;17.73;61.08
5522;BME280;2783;48.730;8.006;2023-04-08T09:19:32;100655.72;;;17.70;63.49
5522;BME280;2783;48.730;8.006;2023-04-08T09:22:05;100656.56;;;17.36;62.42
5522;BME280;2783;48.730;8.006;2023-04-08T09:24:31;100659.63;;;17.10;64.16
5522;BME280;2783;48.730;8.006;2023-04-08T09:26:56;100664.59;;;16.82;63.85
5522;BME280;2783;48.730;8.006;2023-04-08T09:29:24;100663.09;;;16.95;66.17
5522;BME280;2783;48.730;8.006;2023-04-08T09:31:54;100662.84;;;17.18;65.69
5522;BME280;2783;48.730;8.006;2023-04-08T09:34:19;100659.75;;;17.61;64.55
5522;BME280;2783;48.730;8.006;2023-04-08T09:36:47;100652.28;;;18.17;64.52
5522;BME280;2783;48.730;8.006;2023-04-08T09:39:13;100668.19;;;18.39;61.92
5522;BME280;2783;48.730;8.006;2023-04-08T09:41:38;100661.53;;;18.29;60.30
5522;BME280;2783;48.730;8.006;2023-04-08T09:44:09;100661.97;;;18.04;57.51
5522;BME280;2783;48.730;8.006;2023-04-08T09:49:06;100648.66;;;19.90;54.91
5522;BME280;2783;48.730;8.006;2023-04-08T09:54:09;100651.06;;;20.24;47.80
5522;BME280;2783;48.730;8.006;2023-04-08T09:56:59;100655.88;;;20.47;48.36
5522;BME280;2783;48.730;8.006;2023-04-08T09:59:22;100665.25;;;20.55;50.37
5522;BME280;2783;48.730;8.006;2023-04-08T10:01:54;100660.59;;;20.71;46.39
5522;BME280;2783;48.730;8.006;2023-04-08T10:04:22;100661.13;;;20.64;46.39
5522;BME280;2783;48.730;8.006;2023-04-08T10:06:53;100663.69;;;20.51;47.67
5522;BME280;2783;48.730;8.006;2023-04-08T10:09:21;100671.59;;;19.97;48.32
5522;BME280;2783;48.730;8.006;2023-04-08T10:11:46;100666.78;;;20.17;49.15
5522;BME280;2783;48.730;8.006;2023-04-08T10:14:12;100661.22;;;20.62;44.91
5522;BME280;2783;48.730;8.006;2023-04-08T10:16:37;100663.59;;;21.36;47.14
5522;BME280;2783;48.730;8.006;2023-04-08T10:19:03;100661.44;;;21.94;44.39
5522;BME280;2783;48.730;8.006;2023-04-08T10:21:48;100657.97;;;22.67;43.55
5522;BME280;2783;48.730;8.006;2023-04-08T10:24:14;100661.47;;;22.69;42.38
5522;BME280;2783;48.730;8.006;2023-04-08T10:31:42;100657.97;;;22.30;42.69
5522;BME280;2783;48.730;8.006;2023-04-08T10:34:49;100658.84;;;22.05;43.43
5522;BME280;2783;48.730;8.006;2023-04-08T10:36:59;100661.34;;;21.42;41.29
5522;BME280;2783;48.730;8.006;2023-04-08T10:39:26;100651.53;;;21.54;43.42
5522;BME280;2783;48.730;8.006;2023-04-08T10:41:51;100653.19;;;21.69;42.72
5522;BME280;2783;48.730;8.006;2023-04-08T10:44:20;100648.56;;;21.71;41.36
5522;BME280;2783;48.730;8.006;2023-04-08T10:46:45;100648.25;;;21.49;41.21
5522;BME280;2783;48.730;8.006;2023-04-08T10:49:12;100656.47;;;21.74;41.60
5522;BME280;2783;48.730;8.006;2023-04-08T10:51:38;100646.13;;;21.80;40.74
5522;BME280;2783;48.730;8.006;2023-04-08T10:54:13;100644.84;;;21.86;44.04
5522;BME280;2783;48.730;8.006;2023-04-08T10:59:10;100648.06;;;21.78;42.15
5522;BME280;2783;48.730;8.006;2023-04-08T11:01:38;100641.91;;;21.89;42.77
5522;BME280;2783;48.730;8.006;2023-04-08T11:04:11;100642.91;;;22.00;42.41
5522;BME280;2783;48.730;8.006;2023-04-08T11:06:37;100644.97;;;22.72;41.31
5522;BME280;2783;48.730;8.006;2023-04-08T11:09:02;100629.94;;;23.52;39.75
5522;BME280;2783;48.730;8.006;2023-04-08T11:11:29;100635.06;;;23.32;39.70
5522;BME280;2783;48.730;8.006;2023-04-08T11:13:54;100625.72;;;23.82;40.95
5522;BME280;2783;48.730;8.006;2023-04-08T11:16:21;100624.50;;;24.21;38.13
5522;BME280;2783;48.730;8.006;2023-04-08T11:18:46;100629.75;;;24.90;37.55
5522;BME280;2783;48.730;8.006;2023-04-08T11:21:12;100631.50;;;24.69;37.37
5522;BME280;2783;48.730;8.006;2023-04-08T11:23:37;100626.28;;;24.88;35.23
5522;BME280;2783;48.730;8.006;2023-04-08T11:26:02;100634.28;;;25.12;36.82
5522;BME280;2783;48.730;8.006;2023-04-08T11:28:28;100621.69;;;24.66;36.67
5522;BME280;2783;48.730;8.006;2023-04-08T11:30:54;100612.91;;;24.52;36.57
5522;BME280;2783;48.730;8.006;2023-04-08T11:33:19;100619.63;;;24.70;37.58
5522;BME280;2783;48.730;8.006;2023-04-08T11:35:49;100615.28;;;24.79;36.93
5522;BME280;2783;48.730;8.006;2023-04-08T11:38:15;100617.41;;;24.75;34.62
5522;BME280;2783;48.730;8.006;2023-04-08T11:40:40;100621.56;;;24.35;36.34
5522;BME280;2783;48.730;8.006;2023-04-08T11:43:16;100615.53;;;23.97;36.23
5522;BME280;2783;48.730;8.006;2023-04-08T11:45:41;100619.94;;;24.21;36.08
5522;BME280;2783;48.730;8.006;2023-04-08T11:48:10;100614.75;;;24.40;36.64
5522;BME280;2783;48.730;8.006;2023-04-08T11:50:36;100611.19;;;24.51;35.65
5522;BME280;2783;48.730;8.006;2023-04-08T11:53:02;100609.53;;;23.70;34.55
5522;BME280;2783;48.730;8.006;2023-04-08T11:55:28;100608.34;;;23.26;36.35
5522;BME280;2783;48.730;8.006;2023-04-08T11:57:54;100607.97;;;22.71;37.91
5522;BME280;2783;48.730;8.006;2023-04-08T12:00:20;100609.44;;;22.14;37.74
5522;BME280;2783;48.730;8.006;2023-04-08T12:02:46;100601.59;;;21.97;40.30
5522;BME280;2783;48.730;8.006;2023-04-08T12:05:15;100609.69;;;21.45;39.70
5522;BME280;2783;48.730;8.006;2023-04-08T12:07:41;100610.91;;;21.15;40.23
5522;BME280;2783;48.730;8.006;2023-04-08T12:10:07;100607.16;;;21.03;40.92
5522;BME280;2783;48.730;8.006;2023-04-08T12:12:33;100613.66;;;20.72;43.18
5522;BME280;2783;48.730;8.006;2023-04-08T12:14:58;100606.25;;;20.62;43.12
5522;BME280;2783;48.730;8.006;2023-04-08T12:17:24;100611.41;;;20.24;41.40
5522;BME280;2783;48.730;8.006;2023-04-08T12:19:50;100610.28;;;19.99;41.16
5522;BME280;2783;48.730;8.006;2023-04-08T12:22:16;100616.59;;;19.84;41.76
5522;BME280;2783;48.730;8.006;2023-04-08T12:24:41;100601.78;;;19.91;43.59
5522;BME280;2783;48.730;8.006;2023-04-08T12:27:06;100616.50;;;19.71;43.40
5522;BME280;2783;48.730;8.006;2023-04-08T12:29:32;100612.84;;;19.42;44.21
5522;BME280;2783;48.730;8.006;2023-04-08T12:31:57;100615.88;;;19.21;44.50
5522;BME280;2783;48.730;8.006;2023-04-08T12:34:23;100612.91;;;18.96;44.46
5522;BME280;2783;48.730;8.006;2023-04-08T12:36:48;100615.50;;;18.66;44.34
5522;BME280;2783;48.730;8.006;2023-04-08T12:39:14;100607.22;;;18.54;44.87
5522;BME280;2783;48.730;8.006;2023-04-08T12:41:39;100615.22;;;18.55;43.68
5522;BME280;2783;48.730;8.006;2023-04-08T12:44:05;100618.34;;;18.48;45.36
5522;BME280;2783;48.730;8.006;2023-04-08T12:46:32;100614.47;;;18.36;45.11
5522;BME280;2783;48.730;8.006;2023-04-08T12:48:58;100613.41;;;18.38;45.05
5522;BME280;2783;48.730;8.006;2023-04-08T12:51:23;100611.84;;;18.34;45.53
5522;BME280;2783;48.730;8.006;2023-04-08T12:53:50;100616.94;;;18.41;46.24
5522;BME280;2783;48.730;8.006;2023-04-08T12:56:15;100606.47;;;18.34;45.01
5522;BME280;2783;48.730;8.006;2023-04-08T12:58:40;100608.19;;;18.35;46.78
5522;BME280;2783;48.730;8.006;2023-04-08T13:01:06;100615.03;;;18.25;47.22
5522;BME280;2783;48.730;8.006;2023-04-08T13:03:32;100611.69;;;18.05;47.84
5522;BME280;2783;48.730;8.006;2023-04-08T13:06:01;100615.88;;;18.10;48.57
5522;BME280;2783;48.730;8.006;2023-04-08T13:08:27;100618.63;;;18.09;47.57
5522;BME280;2783;48.730;8.006;2023-04-08T13:10:53;100616.81;;;18.09;47.07
5522;BME280;2783;48.730;8.006;2023-04-08T13:13:21;100614.38;;;18.05;47.09
5522;BME280;2783;48.730;8.006;2023-04-08T13:15:47;100617.97;;;18.05;48.24
5522;BME280;2783;48.730;8.006;2023-04-08T13:18:13;100617.38;;;18.16;49.54
5522;BME280;2783;48.730;8.006;2023-04-08T13:20:38;100612.25;;;18.11;48.21
5522;BME280;2783;48.730;8.006;2023-04-08T13:23:03;100617.28;;;18.17;48.26